sensor_id;sensor_type;location;lat;lon;timestamp;pressure;altitude;pressure_sealevel;temperature;humidity
4398;BME280;2213;49.720;7.296;2022-09-24T00:01:32;97888.34;;;10.54;100.00
4398;BME280;2213;49.720;7.296;2022-09-24T00:04:04;97887.09;;;10.50;100.00
4398;BME280;2213;49.720;7.296;2022-09-24T00:06:37;97890.91;;;10.48;100.00
4398;BME280;2213;49.720;7.296;2022-09-24T00:09:08;97890.09;;;10.47;100.00
4398;BME280;2213;49.720;7.296;2022-09-24T00:11:37;97891.63;;;10.42;100.00
4398;BME280;2213;49.720;7.296;2022-09-24T00:14:08;97890.81;;;10.41;100.00
4398;BME280;2213;49.720;7.296;2022-09-24T00:16:38;97897.63;;;10.36;100.00
4398;BME280;2213;49.720;7.296;2022-09-24T00:19:08;97899.00;;;10.32;100.00
4398;BME280;2213;49.720;7.296;2022-09-24T00:21:39;97891.97;;;10.32;100.00
4398;BME280;2213;49.720;7.296;2022-09-24T00:24:12;97891.16;;;10.32;100.00
4398;BME280;2213;49.720;7.296;2022-09-24T00:27:05;97892.34;;;10.29;100.00
4398;BME280;2213;49.720;7.296;2022-09-24T00:29:36;97887.13;;;10.29;100.00
4398;BME280;2213;49.720;7.296;2022-09-24T00:32:05;97890.72;;;10.28;100.00
4398;BME280;2213;49.720;7.296;2022-09-24T00:34:35;97876.06;;;10.27;100.00
4398;BME280;2213;49.720;7.296;2022-09-24T00:37:04;97877.81;;;10.20;100.00
4398;BME280;2213;49.720;7.296;2022-09-24T00:39:33;97876.56;;;10.16;100.00
4398;BME280;2213;49.720;7.296;2022-09-24T00:42:01;97874.47;;;10.11;100.00
4398;BME280;2213;49.720;7.296;2022-09-24T00:44:52;97867.19;;;10.07;100.00
4398;BME280;2213;49.720;7.296;2022-09-24T00:47:28;97879.16;;;9.95;100.00
4398;BME280;2213;49.720;7.296;2022-09-24T00:50:14;97876.28;;;9.90;100.00
4398;BME280;2213;49.720;7.296;2022-09-24T00:52:51;97869.09;;;9.92;100.00
4398;BME280;2213;49.720;7.296;2022-09-24T00:55:21;97871.50;;;9.93;100.00
4398;BME280;2213;49.720;7.296;2022-09-24T00:57:55;97872.31;;;9.94;100.00
4398;BME280;2213;49.720;7.296;2022-09-24T01:00:29;97860.25;;;9.93;100.00
4398;BME280;2213;49.720;7.296;2022-09-24T01:03:03;97848.91;;;9.86;100.00
4398;BME280;2213;49.720;7.296;2022-09-24T01:05:34;97849.31;;;9.83;100.00
4398;BME280;2213;49.720;7.296;2022-09-24T01:08:05;97856.97;;;9.84;100.00
4398;BME280;2213;49.720;7.296;2022-09-24T01:10:53;97850.06;;;9.77;100.00
4398;BME280;2213;49.720;7.296;2022-09-24T01:13:40;97844.22;;;9.75;100.00
4398;BME280;2213;49.720;7.296;2022-09-24T01:16:27;97848.88;;;9.79;100.00
4398;BME280;2213;49.720;7.296;2022-09-24T01:19:28;97845.81;;;9.76;100.00
4398;BME280;2213;49.720;7.296;2022-09-24T01:22:16;97830.78;;;9.78;100.00
4398;BME280;2213;49.720;7.296;2022-09-24T01:25:00;97833.94;;;9.73;100.00
4398;BME280;2213;49.720;7.296;2022-09-24T01:27:53;97841.13;;;9.65;100.00
4398;BME280;2213;49.720;7.296;2022-09-24T01:30:30;97841.13;;;9.65;100.00
4398;BME280;2213;49.720;7.296;2022-09-24T01:33:10;97849.56;;;9.67;100.00
4398;BME280;2213;49.720;7.296;2022-09-24T01:35:48;97841.91;;;9.65;100.00
4398;BME280;2213;49.720;7.296;2022-09-24T01:38:24;97839.06;;;9.60;100.00
4398;BME280;2213;49.720;7.296;2022-09-24T01:40:57;97846.25;;;9.58;100.00
4398;BME280;2213;49.720;7.296;2022-09-24T01:43:29;97838.56;;;9.50;100.00
4398;BME280;2213;49.720;7.296;2022-09-24T01:46:04;97847.75;;;9.46;100.00
4398;BME280;2213;49.720;7.296;2022-09-24T01:48:35;97837.13;;;9.47;100.00
4398;BME280;2213;49.720;7.296;2022-09-24T01:51:12;97834.50;;;9.47;100.00
4398;BME280;2213;49.720;7.296;2022-09-24T01:53:49;97831.25;;;9.45;100.00
4398;BME280;2213;49.720;7.296;2022-09-24T01:56:26;97826.03;;;9.45;100.00
4398;BME280;2213;49.720;7.296;2022-09-24T01:59:03;97827.22;;;9.43;100.00
4398;BME280;2213;49.720;7.296;2022-09-24T02:01:41;97824.19;;;9.39;100.00
4398;BME280;2213;49.720;7.296;2022-09-24T02:04:16;97820.31;;;9.35;100.00
4398;BME280;2213;49.720;7.296;2022-09-24T02:06:51;97824.78;;;9.41;100.00
4398;BME280;2213;49.720;7.296;2022-09-24T02:09:31;97825.09;;;9.32;100.00
4398;BME280;2213;49.720;7.296;2022-09-24T02:12:08;97819.88;;;9.32;100.00
4398;BME280;2213;49.720;7.296;2022-09-24T02:14:44;97817.09;;;9.33;100.00
4398;BME280;2213;49.720;7.296;2022-09-24T02:17:15;97817.88;;;9.34;100.00
4398;BME280;2213;49.720;7.296;2022-09-24T02:19:45;97809.88;;;9.35;100.00
4398;BME280;2213;49.720;7.296;2022-09-24T02:22:17;97819.13;;;9.38;100.00
4398;BME280;2213;49.720;7.296;2022-09-24T02:24:49;97811.13;;;9.39;100.00
4398;BME280;2213;49.720;7.296;2022-09-24T02:27:18;97802.50;;;9.39;100.00
4398;BME280;2213;49.720;7.296;2022-09-24T02:29:48;97799.44;;;9.35;100.00
4398;BME280;2213;49.720;7.296;2022-09-24T02:32:21;97801.00;;;9.30;100.00
4398;BME280;2213;49.720;7.296;2022-09-24T02:34:56;97800.94;;;9.23;100.00
4398;BME280;2213;49.720;7.296;2022-09-24T02:37:27;97787.31;;;9.28;100.00
4398;BME280;2213;49.720;7.296;2022-09-24T02:39:55;97782.31;;;9.26;100.00
4398;BME280;2213;49.720;7.296;2022-09-24T02:42:25;97772.84;;;9.25;100.00
4398;BME280;2213;49.720;7.296;2022-09-24T02:44:54;97768.88;;;9.29;100.00
4398;BME280;2213;49.720;7.296;2022-09-24T02:47:29;97776.50;;;9.31;100.00
4398;BME280;2213;49.720;7.296;2022-09-24T02:49:58;97775.25;;;9.27;100.00
4398;BME280;2213;49.720;7.296;2022-09-24T02:52:27;97770.34;;;9.17;100.00
4398;BME280;2213;49.720;7.296;2022-09-24T02:54:55;97768.94;;;9.15;100.00
4398;BME280;2213;49.720;7.296;2022-09-24T02:57:24;97771.38;;;9.16;100.00
4398;BME280;2213;49.720;7.296;2022-09-24T02:59:53;97759.19;;;9.23;100.00
4398;BME280;2213;49.720;7.296;2022-09-24T03:02:22;97769.25;;;9.26;100.00
4398;BME280;2213;49.720;7.296;2022-09-24T03:04:52;97763.66;;;9.29;100.00
4398;BME280;2213;49.720;7.296;2022-09-24T03:07:21;97770.03;;;9.27;100.00
4398;BME280;2213;49.720;7.296;2022-09-24T03:09:50;97771.22;;;9.24;100.00
4398;BME280;2213;49.720;7.296;2022-09-24T03:12:20;97761.97;;;9.22;100.00
4398;BME280;2213;49.720;7.296;2022-09-24T03:14:48;97768.44;;;9.26;100.00
4398;BME280;2213;49.720;7.296;2022-09-24T03:17:18;97772.84;;;9.25;100.00
4398;BME280;2213;49.720;7.296;2022-09-24T03:19:46;97758.44;;;9.29;100.00
4398;BME280;2213;49.720;7.296;2022-09-24T03:22:18;97761.66;;;9.31;100.00
4398;BME280;2213;49.720;7.296;2022-09-24T03:24:47;97763.66;;;9.29;100.00
4398;BME280;2213;49.720;7.296;2022-09-24T03:27:16;97772.31;;;9.30;100.00
4398;BME280;2213;49.720;7.296;2022-09-24T03:29:44;97765.63;;;9.27;100.00
4398;BME280;2213;49.720;7.296;2022-09-24T03:32:30;97778.50;;;9.29;100.00
4398;BME280;2213;49.720;7.296;2022-09-24T03:35:00;97774.72;;;9.31;100.00
4398;BME280;2213;49.720;7.296;2022-09-24T03:37:30;97765.91;;;9.32;100.00
4398;BME280;2213;49.720;7.296;2022-09-24T03:39:59;97759.25;;;9.30;100.00
4398;BME280;2213;49.720;7.296;2022-09-24T03:42:28;97749.97;;;9.27;100.00
4398;BME280;2213;49.720;7.296;2022-09-24T03:44:57;97755.94;;;9.21;100.00
4398;BME280;2213;49.720;7.296;2022-09-24T03:47:27;97756.31;;;9.18;100.00
4398;BME280;2213;49.720;7.296;2022-09-24T03:49:57;97740.66;;;9.18;100.00
4398;BME280;2213;49.720;7.296;2022-09-24T03:52:27;97743.88;;;9.20;100.00
4398;BME280;2213;49.720;7.296;2022-09-24T03:54:57;97736.28;;;9.19;100.00
4398;BME280;2213;49.720;7.296;2022-09-24T03:57:27;97737.50;;;9.23;100.00
4398;BME280;2213;49.720;7.296;2022-09-24T03:59:56;97740.28;;;9.21;100.00
4398;BME280;2213;49.720;7.296;2022-09-24T04:02:26;97736.28;;;9.19;100.00
4398;BME280;2213;49.720;7.296;2022-09-24T04:04:58;97741.50;;;9.19;100.00
4398;BME280;2213;49.720;7.296;2022-09-24T04:07:28;97747.75;;;9.24;100.00
4398;BME280;2213;49.720;7.296;2022-09-24T04:09:58;97738.56;;;9.28;100.00
4398;BME280;2213;49.720;7.296;2022-09-24T04:12:27;97746.66;;;9.33;100.00
4398;BME280;2213;49.720;7.296;2022-09-24T04:14:56;97743.84;;;9.35;100.00
4398;BME280;2213;49.720;7.296;2022-09-24T04:17:24;97736.81;;;9.35;100.00
4398;BME280;2213;49.720;7.296;2022-09-24T04:19:57;97743.22;;;9.33;100.00
4398;BME280;2213;49.720;7.296;2022-09-24T04:22:26;97726.38;;;9.35;100.00
4398;BME280;2213;49.720;7.296;2022-09-24T04:24:55;97725.03;;;9.39;100.00
4398;BME280;2213;49.720;7.296;2022-09-24T04:27:25;97726.75;;;9.32;100.00
4398;BME280;2213;49.720;7.296;2022-09-24T04:29:54;97718.50;;;9.29;100.00
4398;BME280;2213;49.720;7.296;2022-09-24T04:32:22;97723.53;;;9.30;100.00
4398;BME280;2213;49.720;7.296;2022-09-24T04:34:52;97713.72;;;9.32;100.00
4398;BME280;2213;49.720;7.296;2022-09-24T04:37:21;97717.56;;;9.36;100.00
4398;BME280;2213;49.720;7.296;2022-09-24T04:39:50;97707.69;;;9.32;100.00
4398;BME280;2213;49.720;7.296;2022-09-24T04:42:21;97715.09;;;9.28;100.00
4398;BME280;2213;49.720;7.296;2022-09-24T04:44:51;97704.66;;;9.28;100.00
4398;BME280;2213;49.720;7.296;2022-09-24T04:47:22;97710.84;;;9.27;100.00
4398;BME280;2213;49.720;7.296;2022-09-24T04:49:52;97710.25;;;9.25;100.00
4398;BME280;2213;49.720;7.296;2022-09-24T04:52:21;97720.47;;;9.27;100.00
4398;BME280;2213;49.720;7.296;2022-09-24T04:54:52;97715.09;;;9.28;100.00
4398;BME280;2213;49.720;7.296;2022-09-24T04:57:21;97722.31;;;9.26;100.00
4398;BME280;2213;49.720;7.296;2022-09-24T04:59:52;97727.31;;;9.28;100.00
4398;BME280;2213;49.720;7.296;2022-09-24T05:02:21;97728.50;;;9.25;100.00
4398;BME280;2213;49.720;7.296;2022-09-24T05:04:51;97726.88;;;9.24;100.00
4398;BME280;2213;49.720;7.296;2022-09-24T05:07:20;97730.72;;;9.28;100.00
4398;BME280;2213;49.720;7.296;2022-09-24T05:09:49;97726.75;;;9.32;100.00
4398;BME280;2213;49.720;7.296;2022-09-24T05:12:17;97723.53;;;9.30;100.00
4398;BME280;2213;49.720;7.296;2022-09-24T05:14:47;97723.53;;;9.30;100.00
4398;BME280;2213;49.720;7.296;2022-09-24T05:17:17;97729.53;;;9.31;100.00
4398;BME280;2213;49.720;7.296;2022-09-24T05:19:46;97733.94;;;9.30;100.00
4398;BME280;2213;49.720;7.296;2022-09-24T05:22:15;97737.56;;;9.29;100.00
4398;BME280;2213;49.720;7.296;2022-09-24T05:24:43;97737.56;;;9.29;100.00
4398;BME280;2213;49.720;7.296;2022-09-24T05:27:12;97728.72;;;9.30;100.00
4398;BME280;2213;49.720;7.296;2022-09-24T05:29:42;97733.41;;;9.35;100.00
4398;BME280;2213;49.720;7.296;2022-09-24T05:32:14;97742.47;;;9.39;100.00
4398;BME280;2213;49.720;7.296;2022-09-24T05:34:45;97726.81;;;9.39;100.00
4398;BME280;2213;49.720;7.296;2022-09-24T05:37:14;97731.22;;;9.38;100.00
4398;BME280;2213;49.720;7.296;2022-09-24T05:39:44;97728.63;;;9.38;100.00
4398;BME280;2213;49.720;7.296;2022-09-24T05:42:13;97722.41;;;9.39;100.00
4398;BME280;2213;49.720;7.296;2022-09-24T05:44:42;97719.00;;;9.39;100.00
4398;BME280;2213;49.720;7.296;2022-09-24T05:47:18;97719.97;;;9.38;100.00
4398;BME280;2213;49.720;7.296;2022-09-24T05:49:49;97717.56;;;9.36;100.00
4398;BME280;2213;49.720;7.296;2022-09-24T05:52:17;97723.94;;;9.34;100.00
4398;BME280;2213;49.720;7.296;2022-09-24T05:54:46;97722.78;;;9.36;100.00
4398;BME280;2213;49.720;7.296;2022-09-24T05:57:16;97726.81;;;9.39;100.00
4398;BME280;2213;49.720;7.296;2022-09-24T05:59:45;97730.69;;;9.43;100.00
4398;BME280;2213;49.720;7.296;2022-09-24T06:02:14;97724.47;;;9.44;100.00
4398;BME280;2213;49.720;7.296;2022-09-24T06:04:43;97722.09;;;9.49;100.00
4398;BME280;2213;49.720;7.296;2022-09-24T06:07:13;97730.19;;;9.54;100.00
4398;BME280;2213;49.720;7.296;2022-09-24T06:09:41;97729.38;;;9.53;100.00
4398;BME280;2213;49.720;7.296;2022-09-24T06:12:10;97726.13;;;9.51;100.00
4398;BME280;2213;49.720;7.296;2022-09-24T06:14:38;97727.34;;;9.55;100.00
4398;BME280;2213;49.720;7.296;2022-09-24T06:17:08;97723.00;;;9.63;100.00
4398;BME280;2213;49.720;7.296;2022-09-24T06:19:37;97732.47;;;9.64;100.00
4398;BME280;2213;49.720;7.296;2022-09-24T06:22:06;97738.50;;;9.64;100.00
4398;BME280;2213;49.720;7.296;2022-09-24T06:24:36;97735.06;;;9.64;100.00
4398;BME280;2213;49.720;7.296;2022-09-24T06:27:05;97736.69;;;9.65;100.00
4398;BME280;2213;49.720;7.296;2022-09-24T06:29:34;97733.50;;;9.69;100.00
4398;BME280;2213;49.720;7.296;2022-09-24T06:32:04;97735.53;;;9.74;100.00
4398;BME280;2213;49.720;7.296;2022-09-24T06:34:34;97734.78;;;9.80;100.00
4398;BME280;2213;49.720;7.296;2022-09-24T06:37:02;97732.59;;;9.83;100.00
4398;BME280;2213;49.720;7.296;2022-09-24T06:39:31;97736.44;;;9.87;100.00
4398;BME280;2213;49.720;7.296;2022-09-24T06:42:01;97746.50;;;9.90;100.00
4398;BME280;2213;49.720;7.296;2022-09-24T06:44:29;97745.16;;;9.94;100.00
4398;BME280;2213;49.720;7.296;2022-09-24T06:47:00;97747.38;;;9.97;100.00
4398;BME280;2213;49.720;7.296;2022-09-24T06:49:29;97748.78;;;10.00;100.00
4398;BME280;2213;49.720;7.296;2022-09-24T06:52:01;97755.25;;;10.04;100.00
4398;BME280;2213;49.720;7.296;2022-09-24T06:54:33;97753.06;;;10.07;100.00
4398;BME280;2213;49.720;7.296;2022-09-24T06:57:05;97743.84;;;10.11;100.00
4398;BME280;2213;49.720;7.296;2022-09-24T06:59:34;97749.53;;;10.15;100.00
4398;BME280;2213;49.720;7.296;2022-09-24T07:02:03;97747.34;;;10.19;100.00
4398;BME280;2213;49.720;7.296;2022-09-24T07:04:31;97745.16;;;10.22;100.00
4398;BME280;2213;49.720;7.296;2022-09-24T07:07:00;97750.81;;;10.26;100.00
4398;BME280;2213;49.720;7.296;2022-09-24T07:09:46;97752.22;;;10.28;100.00
4398;BME280;2213;49.720;7.296;2022-09-24T07:12:16;97744.81;;;10.32;100.00
4398;BME280;2213;49.720;7.296;2022-09-24T07:14:44;97744.41;;;10.35;100.00
4398;BME280;2213;49.720;7.296;2022-09-24T07:17:13;97744.03;;;10.38;100.00
4398;BME280;2213;49.720;7.296;2022-09-24T07:19:41;97740.41;;;10.39;100.00
4398;BME280;2213;49.720;7.296;2022-09-24T07:22:10;97741.84;;;10.41;100.00
4398;BME280;2213;49.720;7.296;2022-09-24T07:24:38;97749.31;;;10.44;100.00
4398;BME280;2213;49.720;7.296;2022-09-24T07:27:08;97743.88;;;10.46;100.00
4398;BME280;2213;49.720;7.296;2022-09-24T07:29:38;97736.66;;;10.48;100.00
4398;BME280;2213;49.720;7.296;2022-09-24T07:32:06;97731.03;;;10.51;100.00
4398;BME280;2213;49.720;7.296;2022-09-24T07:34:35;97727.22;;;10.53;100.00
4398;BME280;2213;49.720;7.296;2022-09-24T07:37:03;97732.06;;;10.56;100.00
4398;BME280;2213;49.720;7.296;2022-09-24T07:39:32;97735.50;;;10.57;100.00
4398;BME280;2213;49.720;7.296;2022-09-24T07:42:01;97736.91;;;10.59;100.00
4398;BME280;2213;49.720;7.296;2022-09-24T07:44:30;97746.56;;;10.66;100.00
4398;BME280;2213;49.720;7.296;2022-09-24T07:47:00;97737.34;;;10.70;100.00
4398;BME280;2213;49.720;7.296;2022-09-24T07:49:28;97747.41;;;10.73;100.00
4398;BME280;2213;49.720;7.296;2022-09-24T07:51:59;97745.03;;;10.78;100.00
4398;BME280;2213;49.720;7.296;2022-09-24T07:54:28;97744.25;;;10.84;100.00
4398;BME280;2213;49.720;7.296;2022-09-24T07:56:57;97737.63;;;10.88;100.00
4398;BME280;2213;49.720;7.296;2022-09-24T07:59:28;97738.63;;;10.93;100.00
4398;BME280;2213;49.720;7.296;2022-09-24T08:02:00;97730.19;;;10.98;100.00
4398;BME280;2213;49.720;7.296;2022-09-24T08:04:30;97737.25;;;11.04;100.00
4398;BME280;2213;49.720;7.296;2022-09-24T08:07:01;97743.53;;;11.09;100.00
4398;BME280;2213;49.720;7.296;2022-09-24T08:09:33;97756.03;;;11.14;100.00
4398;BME280;2213;49.720;7.296;2022-09-24T08:12:02;97752.63;;;11.20;100.00
4398;BME280;2213;49.720;7.296;2022-09-24T08:14:38;97753.44;;;11.27;100.00
4398;BME280;2213;49.720;7.296;2022-09-24T08:17:10;97742.75;;;11.35;100.00
4398;BME280;2213;49.720;7.296;2022-09-24T08:19:43;97750.84;;;11.40;100.00
4398;BME280;2213;49.720;7.296;2022-09-24T08:22:15;97746.81;;;11.44;100.00
4398;BME280;2213;49.720;7.296;2022-09-24T08:24:44;97755.06;;;11.48;100.00
4398;BME280;2213;49.720;7.296;2022-09-24T08:27:13;97751.25;;;11.50;100.00
4398;BME280;2213;49.720;7.296;2022-09-24T08:29:47;97751.84;;;11.52;100.00
4398;BME280;2213;49.720;7.296;2022-09-24T08:32:17;97752.88;;;11.58;100.00
4398;BME280;2213;49.720;7.296;2022-09-24T08:34:46;97748.03;;;11.61;100.00
4398;BME280;2213;49.720;7.296;2022-09-24T08:37:19;97750.84;;;11.67;100.00
4398;BME280;2213;49.720;7.296;2022-09-24T08:39:51;97746.00;;;11.70;100.00
4398;BME280;2213;49.720;7.296;2022-09-24T08:42:36;97744.84;;;11.73;100.00
4398;BME280;2213;49.720;7.296;2022-09-24T08:45:10;97734.78;;;11.76;100.00
4398;BME280;2213;49.720;7.296;2022-09-24T08:48:11;97734.38;;;11.79;100.00
4398;BME280;2213;49.720;7.296;2022-09-24T08:50:51;97730.53;;;11.82;100.00
4398;BME280;2213;49.720;7.296;2022-09-24T08:53:28;97738.00;;;11.85;100.00
4398;BME280;2213;49.720;7.296;2022-09-24T08:56:02;97734.97;;;11.88;100.00
4398;BME280;2213;49.720;7.296;2022-09-24T08:58:41;97737.16;;;11.91;100.00
4398;BME280;2213;49.720;7.296;2022-09-24T09:01:27;97736.78;;;11.94;100.00
4398;BME280;2213;49.720;7.296;2022-09-24T09:04:16;97732.72;;;11.98;100.00
4398;BME280;2213;49.720;7.296;2022-09-24T09:07:00;97746.84;;;12.03;100.00
4398;BME280;2213;49.720;7.296;2022-09-24T09:09:42;97742.81;;;12.07;100.00
4398;BME280;2213;49.720;7.296;2022-09-24T09:12:17;97747.25;;;12.14;100.00
4398;BME280;2213;49.720;7.296;2022-09-24T09:14:56;97736.34;;;12.17;100.00
4398;BME280;2213;49.720;7.296;2022-09-24T09:17:40;97742.16;;;12.25;100.00
4398;BME280;2213;49.720;7.296;2022-09-24T09:20:19;97732.69;;;12.31;100.00
4398;BME280;2213;49.720;7.296;2022-09-24T09:22:52;97742.75;;;12.34;100.00
4398;BME280;2213;49.720;7.296;2022-09-24T09:25:23;97736.28;;;12.36;100.00
4398;BME280;2213;49.720;7.296;2022-09-24T09:28:00;97730.63;;;12.39;100.00
4398;BME280;2213;49.720;7.296;2022-09-24T09:30:36;97736.28;;;12.43;100.00
4398;BME280;2213;49.720;7.296;2022-09-24T09:33:27;97740.31;;;12.45;100.00
4398;BME280;2213;49.720;7.296;2022-09-24T09:36:18;97733.66;;;12.49;100.00
4398;BME280;2213;49.720;7.296;2022-09-24T09:39:00;97731.19;;;12.54;100.00
4398;BME280;2213;49.720;7.296;2022-09-24T09:41:40;97729.78;;;12.58;100.00
4398;BME280;2213;49.720;7.296;2022-09-24T09:44:21;97731.38;;;12.66;100.00
4398;BME280;2213;49.720;7.296;2022-09-24T09:47:03;97736.59;;;12.73;100.00
4398;BME280;2213;49.720;7.296;2022-09-24T09:49:36;97733.94;;;12.79;100.00
4398;BME280;2213;49.720;7.296;2022-09-24T09:52:15;97731.09;;;12.87;100.00
4398;BME280;2213;49.720;7.296;2022-09-24T09:54:45;97728.44;;;12.94;100.00
4398;BME280;2213;49.720;7.296;2022-09-24T09:57:18;97734.66;;;12.99;100.00
4398;BME280;2213;49.720;7.296;2022-09-24T09:59:50;97727.53;;;13.06;100.00
4398;BME280;2213;49.720;7.296;2022-09-24T10:02:24;97730.78;;;13.15;100.00
4398;BME280;2213;49.720;7.296;2022-09-24T10:04:56;97727.88;;;13.23;100.00
4398;BME280;2213;49.720;7.296;2022-09-24T10:07:28;97728.22;;;13.33;100.00
4398;BME280;2213;49.720;7.296;2022-09-24T10:10:02;97726.97;;;13.42;100.00
4398;BME280;2213;49.720;7.296;2022-09-24T10:12:31;97713.53;;;13.50;100.00
4398;BME280;2213;49.720;7.296;2022-09-24T10:15:03;97720.16;;;13.59;100.00
4398;BME280;2213;49.720;7.296;2022-09-24T10:17:36;97710.97;;;13.69;100.00
4398;BME280;2213;49.720;7.296;2022-09-24T10:20:14;97705.03;;;13.80;100.00
4398;BME280;2213;49.720;7.296;2022-09-24T10:22:50;97705.34;;;13.90;100.00
4398;BME280;2213;49.720;7.296;2022-09-24T10:25:23;97704.63;;;14.01;100.00
4398;BME280;2213;49.720;7.296;2022-09-24T10:27:57;97702.50;;;14.09;100.00
4398;BME280;2213;49.720;7.296;2022-09-24T10:30:53;97704.06;;;14.17;100.00
4398;BME280;2213;49.720;7.296;2022-09-24T10:33:22;97701.97;;;14.26;100.00
4398;BME280;2213;49.720;7.296;2022-09-24T10:36:04;97706.75;;;14.35;100.00
4398;BME280;2213;49.720;7.296;2022-09-24T10:38:34;97706.47;;;14.43;100.00
4398;BME280;2213;49.720;7.296;2022-09-24T10:41:23;97702.13;;;14.49;100.00
4398;BME280;2213;49.720;7.296;2022-09-24T10:43:54;97701.03;;;14.56;100.00
4398;BME280;2213;49.720;7.296;2022-09-24T10:46:54;97691.81;;;14.66;100.00
4398;BME280;2213;49.720;7.296;2022-09-24T10:50:05;97700.56;;;14.78;100.00
4398;BME280;2213;49.720;7.296;2022-09-24T10:52:46;97697.19;;;14.89;100.00
4398;BME280;2213;49.720;7.296;2022-09-24T10:55:35;97704.75;;;14.97;100.00
4398;BME280;2213;49.720;7.296;2022-09-24T10:58:18;97700.47;;;15.02;100.00
4398;BME280;2213;49.720;7.296;2022-09-24T11:01:09;97697.28;;;15.12;100.00
4398;BME280;2213;49.720;7.296;2022-09-24T11:04:07;97693.28;;;15.21;100.00
4398;BME280;2213;49.720;7.296;2022-09-24T11:06:56;97700.28;;;15.27;100.00
4398;BME280;2213;49.720;7.296;2022-09-24T11:09:40;97698.94;;;15.36;100.00
4398;BME280;2213;49.720;7.296;2022-09-24T11:12:25;97692.31;;;15.45;100.00
4398;BME280;2213;49.720;7.296;2022-09-24T11:15:14;97687.31;;;15.55;100.00
4398;BME280;2213;49.720;7.296;2022-09-24T11:18:10;97685.50;;;15.68;100.00
4398;BME280;2213;49.720;7.296;2022-09-24T11:20:54;97679.31;;;15.74;100.00
4398;BME280;2213;49.720;7.296;2022-09-24T11:23:59;97681.38;;;15.83;100.00
4398;BME280;2213;49.720;7.296;2022-09-24T11:26:47;97686.31;;;15.91;100.00
4398;BME280;2213;49.720;7.296;2022-09-24T11:29:46;97679.91;;;15.99;100.00
4398;BME280;2213;49.720;7.296;2022-09-24T11:32:28;97682.63;;;16.04;100.00
4398;BME280;2213;49.720;7.296;2022-09-24T11:35:31;97684.13;;;16.11;100.00
4398;BME280;2213;49.720;7.296;2022-09-24T11:38:08;97688.72;;;16.16;100.00
4398;BME280;2213;49.720;7.296;2022-09-24T11:41:01;97679.78;;;16.17;100.00
4398;BME280;2213;49.720;7.296;2022-09-24T11:44:13;97683.31;;;16.23;100.00
4398;BME280;2213;49.720;7.296;2022-09-24T11:47:05;97684.47;;;16.27;100.00
4398;BME280;2213;49.720;7.296;2022-09-24T11:50:08;97676.28;;;16.28;100.00
4398;BME280;2213;49.720;7.296;2022-09-24T11:52:48;97673.22;;;16.31;100.00
4398;BME280;2213;49.720;7.296;2022-09-24T11:55:22;97673.78;;;16.33;100.00
4398;BME280;2213;49.720;7.296;2022-09-24T11:58:12;97675.94;;;16.36;100.00
4398;BME280;2213;49.720;7.296;2022-09-24T12:00:48;97679.72;;;16.40;100.00
4398;BME280;2213;49.720;7.296;2022-09-24T12:03:24;97681.00;;;16.38;100.00
4398;BME280;2213;49.720;7.296;2022-09-24T12:06:06;97673.66;;;16.40;100.00
4398;BME280;2213;49.720;7.296;2022-09-24T12:08:41;97669.97;;;16.41;100.00
4398;BME280;2213;49.720;7.296;2022-09-24T12:11:18;97666.63;;;16.45;100.00
4398;BME280;2213;49.720;7.296;2022-09-24T12:13:55;97670.06;;;16.46;100.00
4398;BME280;2213;49.720;7.296;2022-09-24T12:16:28;97665.69;;;16.51;100.00
4398;BME280;2213;49.720;7.296;2022-09-24T12:19:08;97661.34;;;16.57;100.00
4398;BME280;2213;49.720;7.296;2022-09-24T12:21:41;97662.72;;;16.59;100.00
4398;BME280;2213;49.720;7.296;2022-09-24T12:24:20;97659.03;;;16.60;100.00
4398;BME280;2213;49.720;7.296;2022-09-24T12:26:51;97659.16;;;16.66;100.00
4398;BME280;2213;49.720;7.296;2022-09-24T12:29:39;97657.06;;;16.68;100.00
4398;BME280;2213;49.720;7.296;2022-09-24T12:32:37;97653.16;;;16.70;100.00
4398;BME280;2213;49.720;7.296;2022-09-24T12:35:44;97655.31;;;16.73;100.00
4398;BME280;2213;49.720;7.296;2022-09-24T12:38:17;97661.50;;;16.79;100.00
4398;BME280;2213;49.720;7.296;2022-09-24T12:41:16;97659.91;;;16.78;100.00
4398;BME280;2213;49.720;7.296;2022-09-24T12:43:53;97659.41;;;16.81;100.00
4398;BME280;2213;49.720;7.296;2022-09-24T12:46:28;97658.63;;;16.80;100.00
4398;BME280;2213;49.720;7.296;2022-09-24T12:48:59;97659.41;;;16.81;100.00
4398;BME280;2213;49.720;7.296;2022-09-24T12:51:37;97655.28;;;16.85;100.00
4398;BME280;2213;49.720;7.296;2022-09-24T12:54:20;97660.56;;;16.85;100.00
4398;BME280;2213;49.720;7.296;2022-09-24T12:56:50;97658.50;;;16.87;100.00
4398;BME280;2213;49.720;7.296;2022-09-24T12:59:27;97655.84;;;16.87;100.00
4398;BME280;2213;49.720;7.296;2022-09-24T13:02:12;97657.53;;;16.93;100.00
4398;BME280;2213;49.720;7.296;2022-09-24T13:04:46;97649.22;;;17.01;100.00
4398;BME280;2213;49.720;7.296;2022-09-24T13:07:34;97650.81;;;17.02;100.00
4398;BME280;2213;49.720;7.296;2022-09-24T13:10:24;97650.34;;;17.05;100.00
4398;BME280;2213;49.720;7.296;2022-09-24T13:12:53;97642.53;;;17.10;100.00
4398;BME280;2213;49.720;7.296;2022-09-24T13:15:30;97647.66;;;17.17;100.00
4398;BME280;2213;49.720;7.296;2022-09-24T13:18:16;97638.69;;;17.18;100.00
4398;BME280;2213;49.720;7.296;2022-09-24T13:21:01;97637.41;;;17.20;100.00
4398;BME280;2213;49.720;7.296;2022-09-24T13:23:54;97631.97;;;17.27;100.00
4398;BME280;2213;49.720;7.296;2022-09-24T13:26:32;97637.09;;;17.33;100.00
4398;BME280;2213;49.720;7.296;2022-09-24T13:29:05;97631.09;;;17.38;100.00
4398;BME280;2213;49.720;7.296;2022-09-24T13:31:54;97629.41;;;17.48;100.00
4398;BME280;2213;49.720;7.296;2022-09-24T13:34:28;97626.03;;;17.53;100.00
4398;BME280;2213;49.720;7.296;2022-09-24T13:37:02;97629.00;;;17.56;100.00
4398;BME280;2213;49.720;7.296;2022-09-24T13:39:44;97630.41;;;17.59;100.00
4398;BME280;2213;49.720;7.296;2022-09-24T13:42:20;97627.00;;;17.64;100.00
4398;BME280;2213;49.720;7.296;2022-09-24T13:44:54;97624.44;;;17.69;100.00
4398;BME280;2213;49.720;7.296;2022-09-24T13:47:32;97628.22;;;17.73;100.00
4398;BME280;2213;49.720;7.296;2022-09-24T13:50:12;97634.06;;;17.75;100.00
4398;BME280;2213;49.720;7.296;2022-09-24T13:52:46;97636.22;;;17.78;100.00
4398;BME280;2213;49.720;7.296;2022-09-24T13:55:23;97626.69;;;17.77;100.00
4398;BME280;2213;49.720;7.296;2022-09-24T13:57:53;97633.25;;;17.74;100.00